createdAt,value
2019-03-02T00:00:37.769Z,8.10
2019-03-02T00:03:06.347Z,8.10
2019-03-02T00:05:34.804Z,8.10
2019-03-02T00:08:03.320Z,8.10
2019-03-02T00:10:31.776Z,8.10
2019-03-02T00:13:00.246Z,8.10
2019-03-02T00:15:30.677Z,8.10
2019-03-02T00:18:00.016Z,8.10
2019-03-02T00:20:28.783Z,8.10
2019-03-02T00:22:57.217Z,8.10
2019-03-02T00:25:25.663Z,8.10
2019-03-02T00:27:57.827Z,8.20
2019-03-02T00:30:24.372Z,8.10
2019-03-02T00:32:52.909Z,8.10
2019-03-02T00:35:21.352Z,8.00
2019-03-02T00:38:10.108Z,8.00
2019-03-02T00:40:38.645Z,7.90
2019-03-02T00:43:07.167Z,8.00
2019-03-02T00:45:35.679Z,8.00
2019-03-02T00:48:04.287Z,7.90
2019-03-02T00:50:36.518Z,7.90
2019-03-02T00:53:04.636Z,8.00
2019-03-02T00:55:33.079Z,8.00
2019-03-02T00:58:01.535Z,8.00
2019-03-02T01:00:30.116Z,8.00
2019-03-02T01:02:58.648Z,8.00
2019-03-02T01:05:27.168Z,8.10
2019-03-02T01:07:56.134Z,8.10
2019-03-02T01:10:25.876Z,8.10
2019-03-02T01:12:54.522Z,8.10
2019-03-02T01:15:22.984Z,8.10
2019-03-02T01:17:51.429Z,8.10
2019-03-02T01:20:19.892Z,8.10
2019-03-02T01:22:51.739Z,8.00
2019-03-02T01:25:18.577Z,8.00
2019-03-02T01:27:47.012Z,7.90
2019-03-02T01:30:34.815Z,7.90
2019-03-02T01:33:03.431Z,8.00
2019-03-02T01:35:37.635Z,8.00
2019-03-02T01:38:25.419Z,8.00
2019-03-02T01:40:53.963Z,7.90
2019-03-02T01:43:41.742Z,7.90
2019-03-02T01:46:10.336Z,7.90
2019-03-02T01:48:38.767Z,7.90
2019-03-02T01:51:07.315Z,7.80
2019-03-02T01:53:35.748Z,7.80
2019-03-02T01:56:06.169Z,7.80
2019-03-02T01:58:53.840Z,7.90
2019-03-02T02:01:24.830Z,7.90
2019-03-02T02:03:54.474Z,7.90
2019-03-02T02:06:23.100Z,7.90
2019-03-02T02:08:57.632Z,7.90
2019-03-02T02:11:26.096Z,7.90
2019-03-02T02:13:54.547Z,7.90
2019-03-02T02:16:23.063Z,7.90
2019-03-02T02:19:10.923Z,7.90
2019-03-02T02:21:40.380Z,7.90
2019-03-02T02:24:08.941Z,7.90
2019-03-02T02:26:37.454Z,7.90
2019-03-02T02:29:25.432Z,7.90
2019-03-02T02:31:53.940Z,8.00
2019-03-02T02:34:23.749Z,7.90
2019-03-02T02:36:58.193Z,8.00
2019-03-02T02:39:28.927Z,8.00
2019-03-02T02:42:00.009Z,7.90
2019-03-02T02:44:25.687Z,7.90
2019-03-02T02:46:54.164Z,8.00
2019-03-02T02:49:22.617Z,7.90
2019-03-02T02:51:52.276Z,7.90
2019-03-02T02:54:23.318Z,7.90
2019-03-02T02:56:54.246Z,7.90
2019-03-02T02:59:21.208Z,7.90
2019-03-02T03:01:49.667Z,7.90
2019-03-02T03:04:18.237Z,7.90
2019-03-02T03:06:46.696Z,7.90
2019-03-02T03:09:17.564Z,7.90
2019-03-02T03:11:46.019Z,7.90
2019-03-02T03:14:15.037Z,7.90
2019-03-02T03:16:44.665Z,7.90
2019-03-02T03:19:13.130Z,7.90
2019-03-02T03:21:41.581Z,7.90
2019-03-02T03:24:10.050Z,7.90
2019-03-02T03:26:39.103Z,7.80
2019-03-02T03:29:09.838Z,7.80
2019-03-02T03:31:37.725Z,7.70
2019-03-02T03:34:06.189Z,7.80
2019-03-02T03:36:35.511Z,7.80
2019-03-02T03:39:23.481Z,7.80
2019-03-02T03:42:03.902Z,7.80
2019-03-02T03:44:32.377Z,7.80
2019-03-02T03:47:01.977Z,7.60
2019-03-02T03:49:34.162Z,7.60
2019-03-02T03:52:03.909Z,7.60
2019-03-02T03:54:31.158Z,7.60
2019-03-02T03:56:59.657Z,7.60
2019-03-02T03:59:28.121Z,7.70
2019-03-02T04:01:57.078Z,7.60
2019-03-02T04:04:29.055Z,7.60
2019-03-02T04:07:01.376Z,7.70
2019-03-02T04:09:27.326Z,7.70
2019-03-02T04:11:55.836Z,7.70
2019-03-02T04:14:43.617Z,7.70
2019-03-02T04:17:12.084Z,7.70
2019-03-02T04:19:40.576Z,7.70
2019-03-02T04:22:12.450Z,7.70
2019-03-02T04:24:41.136Z,7.70
2019-03-02T04:27:11.060Z,7.70
2019-03-02T04:29:49.281Z,7.70
2019-03-02T04:32:10.049Z,7.80
2019-03-02T04:34:38.488Z,7.80
2019-03-02T04:37:07.968Z,7.80
2019-03-02T04:39:36.473Z,7.70
2019-03-02T04:42:04.965Z,7.70
2019-03-02T04:44:33.442Z,7.70
2019-03-02T04:47:02.878Z,7.70
2019-03-02T04:49:33.412Z,7.70
2019-03-02T04:52:04.004Z,7.80
2019-03-02T04:54:37.438Z,7.80
2019-03-02T04:57:02.627Z,7.80
2019-03-02T04:59:31.079Z,7.80
2019-03-02T05:01:59.527Z,7.90
2019-03-02T05:04:28.713Z,7.90
2019-03-02T05:06:58.163Z,7.90
2019-03-02T05:09:26.612Z,7.90
2019-03-02T05:11:55.117Z,7.80
2019-03-02T05:14:23.575Z,7.80
2019-03-02T05:16:52.036Z,7.80
2019-03-02T05:19:20.527Z,7.80
2019-03-02T05:22:08.419Z,7.90
2019-03-02T05:24:36.872Z,7.90
2019-03-02T05:27:05.326Z,7.90
2019-03-02T05:29:34.827Z,7.90
2019-03-02T05:32:03.263Z,7.80
2019-03-02T05:34:31.702Z,7.80
2019-03-02T05:37:02.931Z,7.80
2019-03-02T05:39:30.311Z,7.80
2019-03-02T05:41:58.806Z,7.90
2019-03-02T05:44:27.279Z,7.90
2019-03-02T05:46:57.775Z,7.90
2019-03-02T05:49:26.011Z,8.00
2019-03-02T05:51:54.534Z,7.90
2019-03-02T05:54:22.992Z,7.90
2019-03-02T05:56:51.431Z,8.00
2019-03-02T05:59:22.852Z,7.90
2019-03-02T06:01:50.051Z,7.90
2019-03-02T06:04:18.820Z,7.90
2019-03-02T06:06:50.810Z,7.90
2019-03-02T06:09:18.863Z,8.00
2019-03-02T06:11:47.295Z,7.90
2019-03-02T06:14:15.758Z,7.90
2019-03-02T06:16:44.200Z,7.90
2019-03-02T06:19:12.679Z,7.90
2019-03-02T06:21:42.819Z,7.90
2019-03-02T06:24:11.355Z,7.90
2019-03-02T06:26:39.805Z,7.80
2019-03-02T06:29:08.297Z,7.80
2019-03-02T06:31:36.728Z,7.80
2019-03-02T06:34:05.257Z,7.80
2019-03-02T06:36:33.699Z,7.80
2019-03-02T06:39:03.860Z,7.80
2019-03-02T06:41:33.165Z,7.70
2019-03-02T06:44:02.615Z,7.70
2019-03-02T06:46:31.128Z,7.70
2019-03-02T06:48:59.591Z,7.70
2019-03-02T06:51:28.019Z,7.60
2019-03-02T06:53:56.464Z,7.70
2019-03-02T06:56:24.925Z,7.70
2019-03-02T06:58:53.363Z,7.70
2019-03-02T07:01:24.917Z,7.70
2019-03-02T07:03:51.979Z,7.70
2019-03-02T07:06:20.430Z,7.70
2019-03-02T07:08:51.582Z,7.60
2019-03-02T07:11:20.032Z,7.60
2019-03-02T07:13:48.475Z,7.50
2019-03-02T07:16:20.082Z,7.50
2019-03-02T07:18:54.840Z,7.50
2019-03-02T07:21:23.308Z,7.50
2019-03-02T07:23:51.739Z,7.60
2019-03-02T07:26:20.965Z,7.60
2019-03-02T07:28:49.554Z,7.60
2019-03-02T07:31:18.007Z,7.60
2019-03-02T07:33:46.448Z,7.60
2019-03-02T07:36:14.908Z,7.60
2019-03-02T07:38:43.360Z,7.70
2019-03-02T07:41:11.885Z,7.70
2019-03-02T07:43:42.306Z,7.70
2019-03-02T07:46:11.872Z,7.70
2019-03-02T07:48:40.796Z,7.70
2019-03-02T07:51:10.275Z,7.70
2019-03-02T07:53:44.831Z,7.70
2019-03-02T07:56:13.315Z,7.70
2019-03-02T07:58:41.775Z,7.70
2019-03-02T08:01:12.785Z,7.70
2019-03-02T08:03:40.545Z,7.70
2019-03-02T08:06:08.987Z,7.70
2019-03-02T08:08:37.451Z,7.80
2019-03-02T08:11:05.893Z,7.90
2019-03-02T08:13:36.589Z,7.90
2019-03-02T08:16:13.748Z,8.00
2019-03-02T08:18:42.204Z,8.00
2019-03-02T08:21:10.720Z,8.10
2019-03-02T08:23:39.183Z,8.20
2019-03-02T08:26:07.698Z,8.20
2019-03-02T08:28:36.147Z,8.20
2019-03-02T08:31:05.600Z,8.20
2019-03-02T08:33:34.854Z,8.20
2019-03-02T08:36:03.456Z,8.20
2019-03-02T08:38:31.920Z,8.20
2019-03-02T08:41:01.703Z,8.20
2019-03-02T08:43:37.852Z,8.30
2019-03-02T08:46:25.609Z,8.30
2019-03-02T08:48:54.739Z,8.30
2019-03-02T08:51:25.187Z,8.20
2019-03-02T08:53:59.722Z,8.20
2019-03-02T08:56:28.160Z,8.20
2019-03-02T08:58:57.895Z,8.30
2019-03-02T09:01:27.923Z,8.30
2019-03-02T09:03:57.490Z,8.30
2019-03-02T09:06:25.948Z,8.40
2019-03-02T09:08:54.384Z,8.40
2019-03-02T09:11:22.917Z,8.50
2019-03-02T09:13:51.356Z,8.50
2019-03-02T09:16:19.886Z,8.50
2019-03-02T09:18:48.338Z,8.60
2019-03-02T09:21:16.782Z,8.70
2019-03-02T09:23:45.256Z,8.70
2019-03-02T09:26:14.988Z,8.80
2019-03-02T09:28:43.690Z,8.90
2019-03-02T09:31:12.162Z,8.90
2019-03-02T09:33:40.632Z,8.90
2019-03-02T09:36:09.077Z,8.90
2019-03-02T09:38:37.527Z,8.90
2019-03-02T09:41:05.957Z,8.90
2019-03-02T09:43:34.405Z,8.90
2019-03-02T09:46:02.835Z,8.90
2019-03-02T09:48:31.353Z,8.80
2019-03-02T09:50:59.869Z,8.80
2019-03-02T09:53:28.375Z,8.90
2019-03-02T09:55:58.183Z,9.00
2019-03-02T09:58:26.961Z,9.10
2019-03-02T10:01:04.494Z,9.10
2019-03-02T10:03:33.188Z,9.20
2019-03-02T10:06:01.615Z,9.20
2019-03-02T10:08:30.075Z,9.20
2019-03-02T10:10:58.506Z,9.20
2019-03-02T10:13:29.971Z,9.40
2019-03-02T10:16:00.576Z,9.40
2019-03-02T10:18:28.583Z,9.40
2019-03-02T10:20:57.146Z,9.50
2019-03-02T10:23:25.643Z,9.60
2019-03-02T10:25:54.084Z,9.60
2019-03-02T10:28:34.094Z,9.60
2019-03-02T10:31:02.584Z,9.70
2019-03-02T10:33:32.240Z,9.80
2019-03-02T10:36:01.745Z,9.90
2019-03-02T10:38:31.383Z,10.00
2019-03-02T10:41:00.124Z,10.00
2019-03-02T10:43:28.622Z,10.00
2019-03-02T10:45:57.254Z,10.10
2019-03-02T10:48:25.858Z,10.20
2019-03-02T10:50:56.020Z,10.20
2019-03-02T10:53:25.166Z,10.30
2019-03-02T10:55:54.619Z,10.40
2019-03-02T10:58:42.400Z,10.40
2019-03-02T11:01:11.037Z,10.50
2019-03-02T11:03:39.574Z,10.50
2019-03-02T11:06:21.291Z,10.60
2019-03-02T11:09:01.511Z,10.70
2019-03-02T11:11:33.662Z,10.90
2019-03-02T11:14:06.680Z,11.10
2019-03-02T11:16:44.612Z,11.20
2019-03-02T11:19:24.611Z,11.30
2019-03-02T11:22:00.602Z,11.40
2019-03-02T11:24:50.214Z,11.50
2019-03-02T11:27:32.828Z,11.60
2019-03-02T11:30:19.170Z,11.70
2019-03-02T11:33:14.361Z,11.70
2019-03-02T11:35:54.038Z,11.80
2019-03-02T11:38:30.566Z,11.80
2019-03-02T11:41:09.154Z,11.90
2019-03-02T11:43:38.368Z,12.00
2019-03-02T11:46:08.648Z,12.10
2019-03-02T11:48:48.501Z,12.00
2019-03-02T11:51:19.769Z,11.90
2019-03-02T11:53:55.914Z,12.10
2019-03-02T11:56:46.690Z,12.30
2019-03-02T11:59:22.334Z,12.40
2019-03-02T12:01:52.436Z,12.50
2019-03-02T12:04:40.999Z,12.60
2019-03-02T12:07:11.202Z,12.70
2019-03-02T12:09:44.535Z,12.70
2019-03-02T12:12:14.819Z,12.80
2019-03-02T12:14:47.885Z,12.80
2019-03-02T12:17:48.958Z,12.80
2019-03-02T12:20:35.553Z,12.70
2019-03-02T12:23:22.172Z,12.80
2019-03-02T12:25:56.464Z,12.80
2019-03-02T12:28:26.557Z,12.70
2019-03-02T12:31:08.477Z,12.90
2019-03-02T12:33:44.611Z,13.10
2019-03-02T12:36:17.545Z,13.20
2019-03-02T12:38:49.146Z,13.40
2019-03-02T12:41:19.382Z,13.50
2019-03-02T12:43:55.435Z,13.40
2019-03-02T12:46:31.744Z,13.30
2019-03-02T12:49:06.953Z,13.20
2019-03-02T12:51:39.364Z,13.20
2019-03-02T12:54:20.476Z,13.30
2019-03-02T12:56:50.577Z,13.20
2019-03-02T12:59:20.767Z,13.20
2019-03-02T13:02:10.004Z,13.20
2019-03-02T13:04:46.198Z,13.20
2019-03-02T13:07:16.468Z,13.20
2019-03-02T13:09:52.564Z,13.30
2019-03-02T13:12:28.708Z,13.50
2019-03-02T13:15:09.540Z,13.80
2019-03-02T13:17:46.827Z,13.80
2019-03-02T13:20:28.051Z,13.90
2019-03-02T13:22:58.156Z,13.90
2019-03-02T13:25:40.483Z,13.90
2019-03-02T13:28:10.656Z,13.70
2019-03-02T13:30:43.610Z,13.80
2019-03-02T13:33:34.202Z,13.70
2019-03-02T13:36:21.671Z,13.60
2019-03-02T13:38:57.600Z,13.60
2019-03-02T13:41:30.896Z,13.50
2019-03-02T13:44:10.463Z,13.40
2019-03-02T13:46:49.015Z,13.30
2019-03-02T13:49:19.175Z,13.40
2019-03-02T13:51:58.370Z,13.30
2019-03-02T13:54:28.549Z,13.30
2019-03-02T13:57:01.052Z,13.20
2019-03-02T13:59:48.604Z,13.10
2019-03-02T14:02:27.534Z,13.00
2019-03-02T14:05:05.683Z,12.90
2019-03-02T14:07:51.612Z,12.90
2019-03-02T14:10:33.464Z,12.90
2019-03-02T14:13:21.937Z,13.00
2019-03-02T14:15:55.299Z,13.00
2019-03-02T14:18:28.462Z,13.00
2019-03-02T14:21:01.328Z,13.00
2019-03-02T14:23:40.123Z,13.10
2019-03-02T14:26:19.519Z,13.10
2019-03-02T14:28:52.594Z,13.10
2019-03-02T14:31:25.880Z,13.10
2019-03-02T14:34:08.460Z,13.10
2019-03-02T14:36:47.519Z,13.20
2019-03-02T14:39:27.148Z,13.10
2019-03-02T14:42:13.800Z,13.10
2019-03-02T14:44:44.380Z,13.00
2019-03-02T14:47:20.703Z,12.90
2019-03-02T14:49:53.333Z,12.90
2019-03-02T14:52:28.982Z,12.90
2019-03-02T14:55:01.222Z,12.80
2019-03-02T14:57:38.494Z,12.90
2019-03-02T15:00:27.583Z,12.90
2019-03-02T15:03:15.084Z,12.90
2019-03-02T15:05:57.288Z,12.90
2019-03-02T15:08:37.421Z,12.80
2019-03-02T15:11:04.555Z,12.80
2019-03-02T15:13:37.694Z,12.70
2019-03-02T15:16:19.790Z,12.50
2019-03-02T15:18:52.852Z,12.50
2019-03-02T15:21:34.696Z,12.50
2019-03-02T15:24:04.856Z,12.40
2019-03-02T15:26:39.378Z,12.30
2019-03-02T15:29:18.793Z,12.30
2019-03-02T15:31:54.696Z,12.20
2019-03-02T15:34:24.807Z,12.20
2019-03-02T15:37:03.833Z,12.20
2019-03-02T15:39:53.386Z,12.20
2019-03-02T15:42:23.982Z,12.10
2019-03-02T15:45:10.612Z,12.20
2019-03-02T15:47:43.599Z,12.10
2019-03-02T15:50:17.709Z,12.10
2019-03-02T15:52:51.354Z,12.10
2019-03-02T15:55:24.047Z,12.20
2019-03-02T15:58:10.460Z,12.10
2019-03-02T16:00:50.613Z,12.10
2019-03-02T16:03:36.652Z,12.00
2019-03-02T16:06:16.056Z,12.00
2019-03-02T16:08:58.239Z,12.00
2019-03-02T16:11:32.700Z,12.00
2019-03-02T16:14:03.041Z,12.00
2019-03-02T16:16:36.367Z,12.00
2019-03-02T16:19:12.544Z,12.00
2019-03-02T16:21:48.683Z,12.00
2019-03-02T16:24:32.852Z,12.10
2019-03-02T16:27:02.936Z,12.00
2019-03-02T16:29:33.099Z,12.00
2019-03-02T16:32:05.232Z,12.10
2019-03-02T16:34:35.388Z,12.10
2019-03-02T16:37:08.293Z,12.00
2019-03-02T16:39:44.391Z,12.00
2019-03-02T16:42:17.468Z,11.90
2019-03-02T16:45:02.355Z,11.80
2019-03-02T16:47:35.361Z,11.80
2019-03-02T16:50:07.047Z,11.70
2019-03-02T16:52:38.833Z,11.60
2019-03-02T16:55:13.618Z,11.50
2019-03-02T16:57:47.032Z,11.40
2019-03-02T17:00:27.624Z,11.30
2019-03-02T17:03:02.910Z,11.20
2019-03-02T17:05:38.593Z,11.10
2019-03-02T17:08:08.699Z,11.10
2019-03-02T17:10:38.852Z,11.00
2019-03-02T17:13:14.833Z,11.00
2019-03-02T17:16:00.185Z,11.00
2019-03-02T17:18:33.223Z,10.80
2019-03-02T17:21:21.668Z,10.80
2019-03-02T17:23:52.022Z,10.80
2019-03-02T17:26:23.193Z,10.70
2019-03-02T17:28:56.328Z,10.70
2019-03-02T17:31:35.991Z,10.70
2019-03-02T17:34:16.719Z,10.80
2019-03-02T17:36:55.992Z,10.90
2019-03-02T17:39:27.906Z,11.00
2019-03-02T17:42:01.115Z,11.00
2019-03-02T17:44:31.263Z,11.00
2019-03-02T17:47:10.345Z,11.00
2019-03-02T17:49:47.251Z,11.00
2019-03-02T17:52:34.063Z,11.00
2019-03-02T17:55:07.501Z,11.00
2019-03-02T17:57:37.894Z,11.10
2019-03-02T18:00:29.220Z,11.10
2019-03-02T18:03:08.391Z,11.10
2019-03-02T18:05:43.912Z,11.10
2019-03-02T18:08:14.882Z,11.10
2019-03-02T18:10:45.169Z,11.10
2019-03-02T18:13:17.873Z,11.10
2019-03-02T18:16:00.302Z,11.10
2019-03-02T18:18:31.895Z,11.10
2019-03-02T18:20:59.169Z,11.10
2019-03-02T18:23:44.097Z,11.10
2019-03-02T18:26:12.685Z,11.20
2019-03-02T18:28:41.225Z,11.10
2019-03-02T18:31:09.887Z,11.20
2019-03-02T18:33:44.381Z,11.10
2019-03-02T18:36:13.498Z,11.20
2019-03-02T18:38:48.303Z,11.20
2019-03-02T18:41:16.515Z,11.20
2019-03-02T18:43:45.836Z,11.20
2019-03-02T18:46:16.415Z,11.20
2019-03-02T18:49:11.505Z,11.20
2019-03-02T18:51:35.226Z,11.20
2019-03-02T18:54:11.921Z,11.20
2019-03-02T18:56:43.044Z,11.20
2019-03-02T18:59:11.608Z,11.20
2019-03-02T19:01:40.768Z,11.30
2019-03-02T19:04:09.560Z,11.30
2019-03-02T19:06:38.113Z,11.30
2019-03-02T19:09:08.899Z,11.30
2019-03-02T19:11:38.679Z,11.30
2019-03-02T19:14:07.236Z,11.30
2019-03-02T19:16:35.888Z,11.30
2019-03-02T19:19:04.623Z,11.30
2019-03-02T19:21:33.308Z,11.30
2019-03-02T19:24:01.764Z,11.30
2019-03-02T19:26:30.207Z,11.30
2019-03-02T19:28:58.788Z,11.30
2019-03-02T19:31:27.302Z,11.30
2019-03-02T19:33:55.850Z,11.40
2019-03-02T19:36:43.628Z,11.40
2019-03-02T19:39:17.628Z,11.40
2019-03-02T19:41:46.206Z,11.40
2019-03-02T19:44:14.720Z,11.40
2019-03-02T19:46:43.259Z,11.40
2019-03-02T19:49:11.721Z,11.30
2019-03-02T19:51:40.218Z,11.30
2019-03-02T19:54:08.681Z,11.30
2019-03-02T19:56:37.111Z,11.30
2019-03-02T19:59:05.649Z,11.30
2019-03-02T20:01:34.173Z,11.30
2019-03-02T20:04:02.613Z,11.30
2019-03-02T20:06:36.855Z,11.30
2019-03-02T20:09:11.527Z,11.30
2019-03-02T20:11:39.981Z,11.30
2019-03-02T20:14:08.514Z,11.30
2019-03-02T20:16:36.964Z,11.30
2019-03-02T20:19:05.508Z,11.30
2019-03-02T20:21:35.035Z,11.40
2019-03-02T20:24:03.675Z,11.30
2019-03-02T20:26:32.308Z,11.30
2019-03-02T20:29:00.890Z,11.30
2019-03-02T20:31:29.392Z,11.30
2019-03-02T20:33:57.898Z,11.40
2019-03-02T20:36:26.366Z,11.30
2019-03-02T20:38:54.897Z,11.30
2019-03-02T20:41:23.455Z,11.30
2019-03-02T20:43:55.653Z,11.30
2019-03-02T20:46:26.216Z,11.30
2019-03-02T20:48:54.694Z,11.30
2019-03-02T20:51:25.202Z,11.40
2019-03-02T20:53:53.664Z,11.40
2019-03-02T20:56:22.264Z,11.40
2019-03-02T20:58:50.847Z,11.50
2019-03-02T21:01:19.296Z,11.50
2019-03-02T21:03:48.177Z,11.50
2019-03-02T21:06:17.048Z,11.50
2019-03-02T21:08:45.487Z,11.50
2019-03-02T21:11:13.997Z,11.50
2019-03-02T21:13:42.840Z,11.60
2019-03-02T21:16:11.490Z,11.50
2019-03-02T21:18:39.963Z,11.50
2019-03-02T21:21:08.481Z,11.50
2019-03-02T21:23:36.933Z,11.50
2019-03-02T21:26:06.188Z,11.50
2019-03-02T21:28:35.543Z,11.50
2019-03-02T21:31:04.240Z,11.50
2019-03-02T21:33:32.920Z,11.50
2019-03-02T21:36:01.442Z,11.40
2019-03-02T21:38:30.074Z,11.40
2019-03-02T21:40:59.999Z,11.40
2019-03-02T21:43:28.577Z,11.40
2019-03-02T21:45:58.139Z,11.40
2019-03-02T21:48:26.734Z,11.40
2019-03-02T21:51:01.032Z,11.40
2019-03-02T21:53:29.534Z,11.40
2019-03-02T21:55:57.999Z,11.50
2019-03-02T21:58:27.530Z,11.50
2019-03-02T22:00:56.083Z,11.50
2019-03-02T22:03:24.581Z,11.50
2019-03-02T22:05:53.110Z,11.50
2019-03-02T22:08:21.567Z,11.50
2019-03-02T22:10:53.407Z,11.50
2019-03-02T22:13:21.868Z,11.40
2019-03-02T22:15:50.358Z,11.40
2019-03-02T22:18:18.799Z,11.30
2019-03-02T22:20:47.281Z,11.30
2019-03-02T22:23:15.799Z,11.30
2019-03-02T22:25:44.336Z,11.20
2019-03-02T22:28:12.836Z,11.20
2019-03-02T22:30:41.314Z,11.20
2019-03-02T22:33:15.855Z,11.10
2019-03-02T22:35:44.378Z,11.10
2019-03-02T22:38:12.888Z,11.10
2019-03-02T22:40:41.437Z,11.10
2019-03-02T22:43:09.952Z,11.10
2019-03-02T22:45:38.417Z,11.10
2019-03-02T22:48:06.976Z,11.10
2019-03-02T22:50:35.748Z,11.10
2019-03-02T22:53:04.338Z,11.10
2019-03-02T22:55:32.821Z,11.10
2019-03-02T22:58:01.718Z,11.10
2019-03-02T23:01:05.592Z,11.10
2019-03-02T23:03:33.043Z,11.10
2019-03-02T23:06:01.530Z,11.10
2019-03-02T23:08:30.111Z,11.20
2019-03-02T23:10:58.903Z,11.20
2019-03-02T23:13:48.304Z,11.20
2019-03-02T23:16:36.099Z,11.20
2019-03-02T23:19:05.051Z,11.20
2019-03-02T23:21:33.566Z,11.20
2019-03-02T23:24:21.434Z,11.20
2019-03-02T23:26:54.662Z,11.30
2019-03-02T23:29:23.141Z,11.30
2019-03-02T23:31:51.609Z,11.30
2019-03-02T23:34:20.126Z,11.20
2019-03-02T23:36:48.648Z,11.20
2019-03-02T23:39:17.153Z,11.20
2019-03-02T23:41:45.604Z,11.20
2019-03-02T23:44:14.432Z,11.20
2019-03-02T23:46:42.946Z,11.10
2019-03-02T23:49:11.503Z,11.10
2019-03-02T23:51:40.838Z,11.10
2019-03-02T23:54:09.419Z,11.10
2019-03-02T23:56:37.928Z,11.00
2019-03-02T23:59:06.395Z,10.90
